createdAt,value
2022-12-21T00:00:11.244Z,1004.13
2022-12-21T00:00:45.328Z,1004.13
2022-12-21T00:01:17.325Z,1004.13
2022-12-21T00:01:49.416Z,1004.13
2022-12-21T00:02:21.449Z,1003.93
2022-12-21T00:02:53.418Z,1003.93
2022-12-21T00:03:25.616Z,1004.13
2022-12-21T00:03:48.302Z,1003.72
2022-12-21T00:04:10.688Z,1003.72
2022-12-21T00:04:45.880Z,1003.72
2022-12-21T00:05:17.424Z,1003.93
2022-12-21T00:05:49.189Z,1003.93
2022-12-21T00:06:21.632Z,1003.93
2022-12-21T00:06:53.539Z,1003.93
2022-12-21T00:07:25.815Z,1003.83
2022-12-21T00:07:48.297Z,1003.93
2022-12-21T00:08:10.664Z,1003.93
2022-12-21T00:08:45.263Z,1003.93
2022-12-21T00:09:17.348Z,1003.93
2022-12-21T00:09:49.378Z,1003.93
2022-12-21T00:10:21.223Z,1004.03
2022-12-21T00:10:53.254Z,1004.03
2022-12-21T00:11:25.301Z,1004.03
2022-12-21T00:11:48.060Z,1003.93
2022-12-21T00:12:10.457Z,1003.93
2022-12-21T00:12:45.389Z,1003.93
2022-12-21T00:13:17.190Z,1003.93
2022-12-21T00:13:49.273Z,1003.93
2022-12-21T00:14:21.365Z,1004.13
2022-12-21T00:14:53.550Z,1004.13
2022-12-21T00:15:25.328Z,1003.93
2022-12-21T00:15:48.947Z,1004.03
2022-12-21T00:16:11.490Z,1004.03
2022-12-21T00:16:45.445Z,1004.03
2022-12-21T00:17:17.502Z,1004.03
2022-12-21T00:17:49.328Z,1004.03
2022-12-21T00:18:21.538Z,1004.23
2022-12-21T00:18:53.352Z,1004.23
2022-12-21T00:19:25.490Z,1003.93
2022-12-21T00:19:48.203Z,1004.03
2022-12-21T00:20:10.545Z,1004.03
2022-12-21T00:20:45.329Z,1004.03
2022-12-21T00:21:17.254Z,1004.03
2022-12-21T00:21:49.353Z,1004.03
2022-12-21T00:22:37.889Z,1004.03
2022-12-21T00:23:00.125Z,1003.62
2022-12-21T00:23:22.556Z,1003.62
2022-12-21T00:23:54.227Z,1004.13
2022-12-21T00:24:29.471Z,1004.13
2022-12-21T00:24:52.027Z,1003.93
2022-12-21T00:25:14.590Z,1003.93
2022-12-21T00:25:49.448Z,1003.93
2022-12-21T00:26:21.354Z,1003.93
2022-12-21T00:26:53.614Z,1003.93
2022-12-21T00:27:25.272Z,1003.83
2022-12-21T00:27:49.367Z,1003.93
2022-12-21T00:28:11.165Z,1003.93
2022-12-21T00:28:45.513Z,1003.93
2022-12-21T00:29:17.289Z,1004.03
2022-12-21T00:29:51.139Z,1004.03
2022-12-21T00:30:21.503Z,1004.03
2022-12-21T00:30:53.351Z,1004.03
2022-12-21T00:31:25.599Z,1003.83
2022-12-21T00:31:48.126Z,1003.93
2022-12-21T00:32:10.746Z,1003.93
2022-12-21T00:32:45.451Z,1003.93
2022-12-21T00:33:17.516Z,1004.03
2022-12-21T00:33:50.234Z,1004.03
2022-12-21T00:34:21.371Z,1003.83
2022-12-21T00:34:53.250Z,1003.83
2022-12-21T00:35:25.367Z,1003.93
2022-12-21T00:35:47.989Z,1003.93
2022-12-21T00:36:10.399Z,1003.93
2022-12-21T00:36:45.342Z,1003.93
2022-12-21T00:37:17.326Z,1003.72
2022-12-21T00:37:49.173Z,1003.72
2022-12-21T00:38:26.807Z,1004.03
2022-12-21T00:38:53.356Z,1004.03
2022-12-21T00:39:25.351Z,1003.93
2022-12-21T00:39:47.998Z,1004.03
2022-12-21T00:40:10.398Z,1004.03
2022-12-21T00:40:45.274Z,1004.03
2022-12-21T00:41:17.531Z,1003.93
2022-12-21T00:41:49.214Z,1003.93
2022-12-21T00:42:21.353Z,1003.83
2022-12-21T00:42:53.575Z,1003.83
2022-12-21T00:43:25.319Z,1003.93
2022-12-21T00:43:47.761Z,1003.93
2022-12-21T00:44:10.077Z,1003.93
2022-12-21T00:44:46.124Z,1003.93
2022-12-21T00:45:17.230Z,1004.13
2022-12-21T00:45:49.332Z,1004.13
2022-12-21T00:46:21.255Z,1004.03
2022-12-21T00:46:53.633Z,1004.03
2022-12-21T00:47:25.302Z,1004.03
2022-12-21T00:47:48.037Z,1004.03
2022-12-21T00:48:10.380Z,1004.03
2022-12-21T00:48:45.881Z,1004.03
2022-12-21T00:49:20.540Z,1003.83
2022-12-21T00:49:49.913Z,1003.83
2022-12-21T00:50:21.712Z,1004.03
2022-12-21T00:50:53.417Z,1004.03
2022-12-21T00:51:25.466Z,1004.03
2022-12-21T00:51:47.862Z,1004.23
2022-12-21T00:52:11.203Z,1004.23
2022-12-21T00:52:45.297Z,1004.23
2022-12-21T00:53:17.966Z,1004.13
2022-12-21T00:53:49.397Z,1004.13
2022-12-21T00:54:21.328Z,1004.44
2022-12-21T00:54:53.302Z,1004.44
2022-12-21T00:55:25.394Z,1003.93
2022-12-21T00:55:48.313Z,1004.13
2022-12-21T00:56:10.726Z,1004.13
2022-12-21T00:56:46.384Z,1004.13
2022-12-21T00:57:17.376Z,1004.23
2022-12-21T00:57:49.584Z,1004.23
2022-12-21T00:58:21.569Z,1004.23
2022-12-21T00:58:53.710Z,1004.23
2022-12-21T00:59:26.924Z,1004.03
2022-12-21T00:59:48.600Z,1004.33
2022-12-21T01:00:12.327Z,1004.33
2022-12-21T01:00:46.152Z,1004.33
2022-12-21T01:01:17.477Z,1004.33
2022-12-21T01:01:49.436Z,1004.33
2022-12-21T01:02:22.529Z,1004.23
2022-12-21T01:02:54.267Z,1004.23
2022-12-21T01:03:25.793Z,1004.23
2022-12-21T01:03:48.519Z,1004.33
2022-12-21T01:04:12.143Z,1004.33
2022-12-21T01:04:46.024Z,1004.33
2022-12-21T01:05:17.339Z,1004.33
2022-12-21T01:05:49.257Z,1004.33
2022-12-21T01:06:22.974Z,1004.33
2022-12-21T01:06:54.323Z,1004.33
2022-12-21T01:07:25.352Z,1004.13
2022-12-21T01:07:48.017Z,1004.33
2022-12-21T01:08:13.161Z,1004.33
2022-12-21T01:08:45.101Z,1004.33
2022-12-21T01:09:17.858Z,1004.33
2022-12-21T01:09:49.880Z,1004.33
2022-12-21T01:10:22.323Z,1004.44
2022-12-21T01:10:53.286Z,1004.44
2022-12-21T01:11:25.398Z,1004.33
2022-12-21T01:11:48.125Z,1004.23
2022-12-21T01:12:10.574Z,1004.23
2022-12-21T01:12:46.101Z,1004.23
2022-12-21T01:13:17.930Z,1004.33
2022-12-21T01:13:50.204Z,1004.33
2022-12-21T01:14:22.468Z,1004.33
2022-12-21T01:14:56.289Z,1004.23
2022-12-21T01:15:19.128Z,1004.23
2022-12-21T01:15:54.001Z,1004.44
2022-12-21T01:16:29.444Z,1004.44
2022-12-21T01:16:51.967Z,1004.44
2022-12-21T01:17:14.268Z,1004.44
2022-12-21T01:17:49.347Z,1004.44
2022-12-21T01:18:21.124Z,1004.33
2022-12-21T01:18:49.899Z,1004.33
2022-12-21T01:19:22.688Z,1004.23
2022-12-21T01:19:55.954Z,1004.13
2022-12-21T01:20:29.366Z,1004.13
2022-12-21T01:20:52.219Z,1004.44
2022-12-21T01:21:14.644Z,1004.44
2022-12-21T01:21:49.814Z,1004.44
2022-12-21T01:22:21.943Z,1004.23
2022-12-21T01:22:53.523Z,1004.23
2022-12-21T01:23:25.681Z,1004.23
2022-12-21T01:23:48.351Z,1004.23
2022-12-21T01:24:12.174Z,1004.23
2022-12-21T01:24:45.565Z,1004.23
2022-12-21T01:25:17.843Z,1004.44
2022-12-21T01:25:50.193Z,1004.44
2022-12-21T01:26:21.876Z,1004.33
2022-12-21T01:26:53.174Z,1004.33
2022-12-21T01:27:23.550Z,1004.33
2022-12-21T01:27:54.511Z,1004.33
2022-12-21T01:28:29.393Z,1004.33
2022-12-21T01:28:51.886Z,1004.54
2022-12-21T01:29:15.464Z,1004.54
2022-12-21T01:29:54.786Z,1004.54
2022-12-21T01:30:21.739Z,1004.44
2022-12-21T01:30:53.712Z,1004.44
2022-12-21T01:31:26.070Z,1004.23
2022-12-21T01:31:48.383Z,1004.44
2022-12-21T01:32:10.686Z,1004.44
2022-12-21T01:32:45.400Z,1004.44
2022-12-21T01:33:17.236Z,1004.33
2022-12-21T01:33:49.307Z,1004.33
2022-12-21T01:34:21.387Z,1004.23
2022-12-21T01:34:53.616Z,1004.23
2022-12-21T01:35:25.265Z,1004.23
2022-12-21T01:35:48.074Z,1004.23
2022-12-21T01:36:10.828Z,1004.23
2022-12-21T01:36:45.572Z,1004.23
2022-12-21T01:37:18.162Z,1004.44
2022-12-21T01:37:49.843Z,1004.44
2022-12-21T01:38:22.236Z,1004.54
2022-12-21T01:38:54.000Z,1004.54
2022-12-21T01:39:25.967Z,1004.64
2022-12-21T01:39:48.737Z,1004.33
2022-12-21T01:40:11.428Z,1004.33
2022-12-21T01:40:45.244Z,1004.33
2022-12-21T01:41:17.361Z,1004.44
2022-12-21T01:41:49.341Z,1004.44
2022-12-21T01:42:21.532Z,1004.44
2022-12-21T01:42:53.805Z,1004.44
2022-12-21T01:43:25.279Z,1004.44
2022-12-21T01:43:48.069Z,1004.44
2022-12-21T01:44:10.532Z,1004.44
2022-12-21T01:44:45.218Z,1004.44
2022-12-21T01:45:17.598Z,1004.54
2022-12-21T01:45:49.349Z,1004.54
2022-12-21T01:46:21.898Z,1004.33
2022-12-21T01:46:53.596Z,1004.33
2022-12-21T01:47:25.657Z,1004.64
2022-12-21T01:47:48.360Z,1004.33
2022-12-21T01:48:10.711Z,1004.33
2022-12-21T01:48:45.427Z,1004.33
2022-12-21T01:49:17.148Z,1004.64
2022-12-21T01:49:50.437Z,1004.64
2022-12-21T01:50:21.503Z,1004.44
2022-12-21T01:50:55.919Z,1004.44
2022-12-21T01:51:25.829Z,1004.44
2022-12-21T01:51:48.698Z,1004.54
2022-12-21T01:52:10.934Z,1004.54
2022-12-21T01:52:45.602Z,1004.54
2022-12-21T01:53:17.960Z,1004.64
2022-12-21T01:53:49.847Z,1004.64
2022-12-21T01:54:22.058Z,1004.33
2022-12-21T01:54:58.148Z,1004.33
2022-12-21T01:55:26.285Z,1004.33
2022-12-21T01:55:48.879Z,1004.44
2022-12-21T01:56:11.851Z,1004.44
2022-12-21T01:56:46.408Z,1004.44
2022-12-21T01:57:17.242Z,1004.33
2022-12-21T01:57:49.792Z,1004.33
2022-12-21T01:58:21.590Z,1004.44
2022-12-21T01:58:54.954Z,1004.64
2022-12-21T01:59:26.789Z,1004.64
2022-12-21T01:59:47.877Z,1004.44
2022-12-21T02:00:11.059Z,1004.44
2022-12-21T02:00:47.700Z,1004.33
2022-12-21T02:01:17.950Z,1004.33
2022-12-21T02:01:49.427Z,1004.33
2022-12-21T02:02:29.003Z,1004.44
2022-12-21T02:02:51.075Z,1004.44
2022-12-21T02:03:22.370Z,1004.23
2022-12-21T02:03:53.968Z,1004.23
2022-12-21T02:04:29.285Z,1004.23
2022-12-21T02:04:52.135Z,1004.33
2022-12-21T02:05:14.601Z,1004.33
2022-12-21T02:05:49.362Z,1004.33
2022-12-21T02:06:21.175Z,1004.33
2022-12-21T02:06:53.413Z,1004.33
2022-12-21T02:07:25.076Z,1004.33
2022-12-21T02:07:48.085Z,1004.44
2022-12-21T02:08:10.490Z,1004.44
2022-12-21T02:08:45.191Z,1004.44
2022-12-21T02:09:17.386Z,1004.44
2022-12-21T02:09:49.372Z,1004.44
2022-12-21T02:10:21.240Z,1004.44
2022-12-21T02:10:53.237Z,1004.44
2022-12-21T02:11:25.252Z,1004.33
2022-12-21T02:11:48.406Z,1004.44
2022-12-21T02:12:10.793Z,1004.44
2022-12-21T02:12:45.356Z,1004.44
2022-12-21T02:13:17.347Z,1004.44
2022-12-21T02:13:49.066Z,1004.44
2022-12-21T02:14:21.237Z,1004.23
2022-12-21T02:14:53.173Z,1004.23
2022-12-21T02:15:25.283Z,1004.33
2022-12-21T02:15:47.984Z,1004.44
2022-12-21T02:16:10.716Z,1004.44
2022-12-21T02:16:45.173Z,1004.44
2022-12-21T02:17:17.224Z,1004.54
2022-12-21T02:17:50.636Z,1004.54
2022-12-21T02:18:21.224Z,1004.44
2022-12-21T02:18:53.395Z,1004.44
2022-12-21T02:19:25.715Z,1004.54
2022-12-21T02:19:48.076Z,1004.44
2022-12-21T02:20:10.450Z,1004.44
2022-12-21T02:20:45.369Z,1004.44
2022-12-21T02:21:18.738Z,1004.54
2022-12-21T02:21:49.249Z,1004.54
2022-12-21T02:22:21.469Z,1004.54
2022-12-21T02:22:53.249Z,1004.54
2022-12-21T02:23:25.268Z,1004.44
2022-12-21T02:23:48.257Z,1004.44
2022-12-21T02:24:10.722Z,1004.44
2022-12-21T02:24:45.256Z,1004.44
2022-12-21T02:25:17.393Z,1004.54
2022-12-21T02:25:49.465Z,1004.54
2022-12-21T02:26:21.174Z,1004.33
2022-12-21T02:26:53.436Z,1004.33
2022-12-21T02:27:22.429Z,1004.44
2022-12-21T02:27:53.831Z,1004.44
2022-12-21T02:28:29.420Z,1004.44
2022-12-21T02:28:52.006Z,1004.54
2022-12-21T02:29:14.904Z,1004.54
2022-12-21T02:29:54.793Z,1004.54
2022-12-21T02:30:21.888Z,1004.44
2022-12-21T02:30:53.779Z,1004.44
2022-12-21T02:31:25.545Z,1004.44
2022-12-21T02:31:47.950Z,1004.44
2022-12-21T02:32:10.385Z,1004.44
2022-12-21T02:32:45.181Z,1004.44
2022-12-21T02:33:17.350Z,1004.33
2022-12-21T02:33:52.650Z,1004.33
2022-12-21T02:34:21.305Z,1004.33
2022-12-21T02:34:53.296Z,1004.33
2022-12-21T02:35:25.137Z,1004.23
2022-12-21T02:35:47.875Z,1004.33
2022-12-21T02:36:10.348Z,1004.33
2022-12-21T02:36:45.331Z,1004.33
2022-12-21T02:37:17.171Z,1004.33
2022-12-21T02:37:49.166Z,1004.33
2022-12-21T02:38:21.108Z,1004.33
2022-12-21T02:38:53.463Z,1004.33
2022-12-21T02:39:25.104Z,1004.33
2022-12-21T02:39:47.956Z,1004.54
2022-12-21T02:40:10.330Z,1004.54
2022-12-21T02:40:45.668Z,1004.54
2022-12-21T02:41:17.731Z,1004.44
2022-12-21T02:41:49.379Z,1004.44
2022-12-21T02:42:21.685Z,1004.44
2022-12-21T02:42:53.386Z,1004.44
2022-12-21T02:43:25.260Z,1004.33
2022-12-21T02:43:47.992Z,1004.44
2022-12-21T02:44:10.430Z,1004.44
2022-12-21T02:44:45.198Z,1004.44
2022-12-21T02:45:17.344Z,1004.54
2022-12-21T02:45:49.153Z,1004.54
2022-12-21T02:46:21.189Z,1004.64
2022-12-21T02:46:53.133Z,1004.64
2022-12-21T02:47:22.596Z,1004.33
2022-12-21T02:47:53.945Z,1004.33
2022-12-21T02:48:29.756Z,1004.33
2022-12-21T02:48:52.224Z,1004.44
2022-12-21T02:49:14.553Z,1004.44
2022-12-21T02:49:49.178Z,1004.44
2022-12-21T02:50:21.333Z,1004.33
2022-12-21T02:50:53.222Z,1004.33
2022-12-21T02:51:25.205Z,1004.33
2022-12-21T02:51:48.291Z,1004.13
2022-12-21T02:52:10.723Z,1004.13
2022-12-21T02:52:45.358Z,1004.13
2022-12-21T02:53:17.425Z,1004.33
2022-12-21T02:53:49.454Z,1004.33
2022-12-21T02:54:21.132Z,1004.44
2022-12-21T02:54:53.104Z,1004.44
2022-12-21T02:55:25.251Z,1004.54
2022-12-21T02:55:49.731Z,1004.33
2022-12-21T02:56:12.108Z,1004.33
2022-12-21T02:56:46.019Z,1004.33
2022-12-21T02:57:17.292Z,1004.23
2022-12-21T02:57:49.210Z,1004.23
2022-12-21T02:58:21.209Z,1004.33
2022-12-21T02:58:53.176Z,1004.33
2022-12-21T02:59:26.685Z,1004.44
2022-12-21T02:59:48.457Z,1004.54
2022-12-21T03:00:13.704Z,1004.54
2022-12-21T03:00:45.245Z,1004.54
2022-12-21T03:01:17.561Z,1004.33
2022-12-21T03:01:45.538Z,1004.33
2022-12-21T03:02:28.394Z,1004.33
2022-12-21T03:02:51.089Z,1004.33
2022-12-21T03:03:22.921Z,1004.33
2022-12-21T03:03:54.117Z,1004.33
2022-12-21T03:04:29.352Z,1004.33
2022-12-21T03:04:52.420Z,1004.44
2022-12-21T03:05:14.727Z,1004.44
2022-12-21T03:05:49.143Z,1004.44
2022-12-21T03:06:21.111Z,1004.54
2022-12-21T03:06:53.354Z,1004.54
2022-12-21T03:07:25.154Z,1004.44
2022-12-21T03:07:47.858Z,1004.33
2022-12-21T03:08:10.464Z,1004.33
2022-12-21T03:08:45.208Z,1004.33
2022-12-21T03:09:17.159Z,1004.13
2022-12-21T03:09:49.348Z,1004.13
2022-12-21T03:10:21.228Z,1004.33
2022-12-21T03:10:53.205Z,1004.33
2022-12-21T03:11:22.365Z,1004.44
2022-12-21T03:11:54.633Z,1004.44
2022-12-21T03:12:29.249Z,1004.44
2022-12-21T03:12:52.352Z,1004.54
2022-12-21T03:13:15.148Z,1004.54
2022-12-21T03:13:49.284Z,1004.54
2022-12-21T03:14:21.129Z,1004.33
2022-12-21T03:14:53.397Z,1004.33
2022-12-21T03:15:25.416Z,1004.33
2022-12-21T03:15:48.150Z,1004.44
2022-12-21T03:16:10.594Z,1004.44
2022-12-21T03:16:45.456Z,1004.44
2022-12-21T03:17:17.432Z,1004.44
2022-12-21T03:17:43.353Z,1004.44
2022-12-21T03:18:21.781Z,1004.44
2022-12-21T03:18:54.344Z,1004.44
2022-12-21T03:19:25.984Z,1004.44
2022-12-21T03:19:48.394Z,1004.54
2022-12-21T03:20:10.794Z,1004.54
2022-12-21T03:20:47.298Z,1004.54
2022-12-21T03:21:17.903Z,1004.54
2022-12-21T03:21:49.509Z,1004.54
2022-12-21T03:22:21.692Z,1004.33
2022-12-21T03:23:01.217Z,1004.33
2022-12-21T03:23:21.144Z,1004.33
2022-12-21T03:23:53.952Z,1004.44
2022-12-21T03:24:29.212Z,1004.44
2022-12-21T03:24:53.006Z,1004.44
2022-12-21T03:25:15.328Z,1004.44
2022-12-21T03:25:49.154Z,1004.44
2022-12-21T03:26:21.178Z,1004.44
2022-12-21T03:26:53.085Z,1004.44
2022-12-21T03:27:25.145Z,1004.44
2022-12-21T03:27:47.810Z,1004.44
2022-12-21T03:28:10.177Z,1004.44
2022-12-21T03:28:45.349Z,1004.44
2022-12-21T03:29:17.151Z,1004.54
2022-12-21T03:29:55.693Z,1004.54
2022-12-21T03:30:21.456Z,1004.44
2022-12-21T03:30:53.582Z,1004.44
2022-12-21T03:31:25.235Z,1004.44
2022-12-21T03:31:48.197Z,1004.44
2022-12-21T03:32:10.431Z,1004.44
2022-12-21T03:32:45.380Z,1004.44
2022-12-21T03:33:17.219Z,1004.23
2022-12-21T03:33:49.200Z,1004.23
2022-12-21T03:34:26.779Z,1004.44
2022-12-21T03:34:53.196Z,1004.44
2022-12-21T03:35:22.256Z,1004.33
2022-12-21T03:35:53.947Z,1004.33
2022-12-21T03:36:29.301Z,1004.33
2022-12-21T03:36:52.651Z,1004.44
2022-12-21T03:37:14.913Z,1004.44
2022-12-21T03:37:50.098Z,1004.44
2022-12-21T03:38:21.477Z,1004.44
2022-12-21T03:38:59.207Z,1004.54
2022-12-21T03:39:21.769Z,1004.54
2022-12-21T03:39:57.129Z,1004.54
2022-12-21T03:40:29.417Z,1004.54
2022-12-21T03:40:51.854Z,1004.44
2022-12-21T03:41:16.903Z,1004.44
2022-12-21T03:41:49.795Z,1004.44
2022-12-21T03:42:22.002Z,1004.33
2022-12-21T03:42:53.431Z,1004.33
2022-12-21T03:43:25.292Z,1004.44
2022-12-21T03:43:48.161Z,1004.44
2022-12-21T03:44:10.357Z,1004.44
2022-12-21T03:44:45.229Z,1004.44
2022-12-21T03:45:17.751Z,1004.33
2022-12-21T03:45:49.231Z,1004.33
2022-12-21T03:46:21.301Z,1004.54
2022-12-21T03:46:53.385Z,1004.54
2022-12-21T03:47:22.309Z,1004.64
2022-12-21T03:47:53.954Z,1004.54
2022-12-21T03:48:29.493Z,1004.54
2022-12-21T03:48:51.937Z,1004.33
2022-12-21T03:49:16.060Z,1004.33
2022-12-21T03:49:49.752Z,1004.33
2022-12-21T03:50:21.704Z,1004.23
2022-12-21T03:50:53.456Z,1004.23
2022-12-21T03:51:25.469Z,1004.54
2022-12-21T03:51:48.079Z,1004.44
2022-12-21T03:52:10.459Z,1004.44
2022-12-21T03:52:45.319Z,1004.44
2022-12-21T03:53:17.298Z,1004.33
2022-12-21T03:53:49.588Z,1004.33
2022-12-21T03:54:21.297Z,1004.33
2022-12-21T03:54:58.868Z,1004.33
2022-12-21T03:55:25.994Z,1004.44
2022-12-21T03:55:48.633Z,1004.33
2022-12-21T03:56:11.683Z,1004.33
2022-12-21T03:56:45.364Z,1004.33
2022-12-21T03:57:17.795Z,1004.54
2022-12-21T03:57:49.232Z,1004.54
2022-12-21T03:58:21.241Z,1004.44
2022-12-21T03:58:53.181Z,1004.44
2022-12-21T03:59:22.471Z,1004.33
2022-12-21T03:59:54.182Z,1004.33
2022-12-21T04:00:29.632Z,1004.33
2022-12-21T04:00:52.329Z,1004.33
2022-12-21T04:01:14.795Z,1004.33
2022-12-21T04:01:50.067Z,1004.33
2022-12-21T04:02:25.731Z,1004.54
2022-12-21T04:03:00.929Z,1004.23
2022-12-21T04:03:23.517Z,1004.23
2022-12-21T04:03:53.988Z,1004.44
2022-12-21T04:04:29.415Z,1004.44
2022-12-21T04:04:51.977Z,1004.44
2022-12-21T04:05:14.371Z,1004.44
2022-12-21T04:05:49.167Z,1004.44
2022-12-21T04:06:21.149Z,1004.54
2022-12-21T04:06:53.066Z,1004.54
2022-12-21T04:07:25.338Z,1004.33
2022-12-21T04:07:48.490Z,1004.23
2022-12-21T04:08:10.840Z,1004.23
2022-12-21T04:08:45.186Z,1004.23
2022-12-21T04:09:17.048Z,1004.13
2022-12-21T04:09:49.053Z,1004.13
2022-12-21T04:10:21.021Z,1004.33
2022-12-21T04:10:53.202Z,1004.33
2022-12-21T04:11:25.183Z,1003.93
2022-12-21T04:11:48.286Z,1004.13
2022-12-21T04:12:14.876Z,1004.13
2022-12-21T04:12:45.409Z,1004.13
2022-12-21T04:13:17.543Z,1004.13
2022-12-21T04:13:49.265Z,1004.13
2022-12-21T04:14:21.040Z,1004.13
2022-12-21T04:14:53.270Z,1004.13
2022-12-21T04:15:25.119Z,1004.23
2022-12-21T04:15:47.862Z,1004.33
2022-12-21T04:16:10.156Z,1004.33
2022-12-21T04:16:45.303Z,1004.33
2022-12-21T04:17:17.127Z,1004.33
2022-12-21T04:17:49.084Z,1004.33
2022-12-21T04:18:21.125Z,1004.13
2022-12-21T04:18:53.214Z,1004.13
2022-12-21T04:19:22.378Z,1004.44
2022-12-21T04:19:54.093Z,1004.23
2022-12-21T04:20:29.264Z,1004.23
2022-12-21T04:20:51.987Z,1004.23
2022-12-21T04:21:14.371Z,1004.23
2022-12-21T04:21:49.215Z,1004.23
2022-12-21T04:22:21.129Z,1004.23
2022-12-21T04:22:53.157Z,1004.23
2022-12-21T04:23:25.422Z,1004.33
2022-12-21T04:23:48.512Z,1004.23
2022-12-21T04:24:10.993Z,1004.23
2022-12-21T04:24:45.243Z,1004.23
2022-12-21T04:25:17.056Z,1004.33
2022-12-21T04:25:49.299Z,1004.33
2022-12-21T04:26:21.212Z,1004.44
2022-12-21T04:26:53.046Z,1004.44
2022-12-21T04:27:25.210Z,1004.33
2022-12-21T04:27:48.396Z,1004.33
2022-12-21T04:28:48.139Z,1004.33
2022-12-21T04:28:53.825Z,1004.64
2022-12-21T04:29:16.613Z,1004.64
2022-12-21T04:29:54.696Z,1004.64
2022-12-21T04:30:22.636Z,1004.33
2022-12-21T04:30:53.369Z,1004.33
2022-12-21T04:31:25.137Z,1004.44
2022-12-21T04:31:48.112Z,1004.33
2022-12-21T04:32:10.384Z,1004.33
2022-12-21T04:32:45.196Z,1004.33
2022-12-21T04:33:17.062Z,1004.44
2022-12-21T04:33:49.030Z,1004.44
2022-12-21T04:34:21.361Z,1004.44
2022-12-21T04:34:53.362Z,1004.44
2022-12-21T04:35:25.052Z,1004.23
2022-12-21T04:35:48.384Z,1004.13
2022-12-21T04:36:10.595Z,1004.13
2022-12-21T04:36:45.403Z,1004.13
2022-12-21T04:37:17.276Z,1004.23
2022-12-21T04:37:50.630Z,1004.23
2022-12-21T04:38:21.279Z,1004.44
2022-12-21T04:38:53.080Z,1004.44
2022-12-21T04:39:25.171Z,1004.23
2022-12-21T04:39:48.191Z,1004.13
2022-12-21T04:40:10.447Z,1004.13
2022-12-21T04:40:45.336Z,1004.13
2022-12-21T04:41:17.142Z,1004.33
2022-12-21T04:41:48.999Z,1004.33
2022-12-21T04:42:21.619Z,1004.23
2022-12-21T04:42:53.383Z,1004.23
2022-12-21T04:43:25.011Z,1004.33
2022-12-21T04:43:47.736Z,1004.13
2022-12-21T04:44:10.362Z,1004.13
2022-12-21T04:44:45.183Z,1004.13
2022-12-21T04:45:17.074Z,1004.13
2022-12-21T04:45:49.429Z,1004.13
2022-12-21T04:46:21.112Z,1004.13
2022-12-21T04:46:53.144Z,1004.13
2022-12-21T04:47:25.050Z,1004.13
2022-12-21T04:47:48.015Z,1004.23
2022-12-21T04:48:10.322Z,1004.23
2022-12-21T04:48:45.248Z,1004.23
2022-12-21T04:49:17.371Z,1004.13
2022-12-21T04:49:49.662Z,1004.13
2022-12-21T04:50:21.237Z,1004.23
2022-12-21T04:50:53.371Z,1004.23
2022-12-21T04:51:25.234Z,1004.13
2022-12-21T04:51:47.846Z,1004.23
2022-12-21T04:52:10.195Z,1004.23
2022-12-21T04:52:45.205Z,1004.23
2022-12-21T04:53:17.162Z,1004.23
2022-12-21T04:53:49.229Z,1004.23
2022-12-21T04:54:21.201Z,1004.23
2022-12-21T04:54:52.985Z,1004.23
2022-12-21T04:55:22.331Z,1004.33
2022-12-21T04:55:55.774Z,1004.44
2022-12-21T04:56:29.156Z,1004.44
2022-12-21T04:56:52.641Z,1004.44
2022-12-21T04:57:15.259Z,1004.44
2022-12-21T04:57:49.091Z,1004.44
2022-12-21T04:58:21.241Z,1004.44
2022-12-21T04:58:53.131Z,1004.44
2022-12-21T04:59:26.687Z,1004.23
2022-12-21T04:59:48.429Z,1004.23
2022-12-21T05:00:11.205Z,1004.23
2022-12-21T05:00:45.241Z,1004.23
2022-12-21T05:01:17.470Z,1004.03
2022-12-21T05:01:49.484Z,1004.03
2022-12-21T05:02:21.287Z,1004.13
2022-12-21T05:02:53.507Z,1004.13
2022-12-21T05:03:25.447Z,1004.33
2022-12-21T05:03:48.876Z,1004.13
2022-12-21T05:04:11.208Z,1004.13
2022-12-21T05:04:45.298Z,1004.13
2022-12-21T05:05:17.218Z,1004.33
2022-12-21T05:05:49.115Z,1004.33
2022-12-21T05:06:21.172Z,1004.23
2022-12-21T05:06:53.034Z,1004.23
2022-12-21T05:07:24.976Z,1004.23
2022-12-21T05:07:47.727Z,1004.23
2022-12-21T05:08:10.015Z,1004.23
2022-12-21T05:08:45.286Z,1004.23
2022-12-21T05:09:49.045Z,1004.23
2022-12-21T05:10:21.105Z,1004.33
2022-12-21T05:10:53.086Z,1004.33
2022-12-21T05:11:22.604Z,1004.33
2022-12-21T05:11:54.021Z,1004.13
2022-12-21T05:12:29.140Z,1004.13
2022-12-21T05:12:52.533Z,1004.23
2022-12-21T05:13:14.696Z,1004.23
2022-12-21T05:13:49.005Z,1004.23
2022-12-21T05:14:21.008Z,1004.23
2022-12-21T05:14:53.199Z,1004.23
2022-12-21T05:15:25.059Z,1004.13
2022-12-21T05:15:47.996Z,1003.93
2022-12-21T05:16:10.668Z,1003.93
2022-12-21T05:16:45.232Z,1003.93
2022-12-21T05:17:17.096Z,1004.23
2022-12-21T05:17:49.029Z,1004.23
2022-12-21T05:18:21.015Z,1004.23
2022-12-21T05:18:53.138Z,1004.23
2022-12-21T05:19:25.377Z,1004.13
2022-12-21T05:19:48.666Z,1004.03
2022-12-21T05:20:11.132Z,1004.03
2022-12-21T05:20:50.235Z,1004.03
2022-12-21T05:21:17.362Z,1004.03
2022-12-21T05:21:49.184Z,1004.03
2022-12-21T05:22:21.125Z,1004.13
2022-12-21T05:22:53.073Z,1004.13
2022-12-21T05:23:25.054Z,1004.13
2022-12-21T05:23:48.276Z,1004.03
2022-12-21T05:24:10.618Z,1004.03
2022-12-21T05:24:46.048Z,1004.03
2022-12-21T05:25:17.388Z,1004.13
2022-12-21T05:25:49.063Z,1004.13
2022-12-21T05:26:21.199Z,1004.13
2022-12-21T05:26:53.094Z,1004.13
2022-12-21T05:27:25.147Z,1004.03
2022-12-21T05:27:48.475Z,1004.13
2022-12-21T05:28:10.816Z,1004.13
2022-12-21T05:28:45.401Z,1004.13
2022-12-21T05:29:17.360Z,1004.13
2022-12-21T05:29:54.585Z,1004.13
2022-12-21T05:30:21.388Z,1004.33
2022-12-21T05:30:53.355Z,1004.33
2022-12-21T05:31:25.381Z,1004.03
2022-12-21T05:31:48.325Z,1004.03
2022-12-21T05:32:10.428Z,1004.03
2022-12-21T05:32:45.412Z,1004.03
2022-12-21T05:33:17.024Z,1004.03
2022-12-21T05:33:51.026Z,1004.03
2022-12-21T05:34:21.054Z,1004.13
2022-12-21T05:34:53.138Z,1004.13
2022-12-21T05:35:22.411Z,1004.23
2022-12-21T05:35:54.236Z,1004.23
2022-12-21T05:36:29.376Z,1004.23
2022-12-21T05:36:52.609Z,1003.93
2022-12-21T05:37:14.087Z,1003.93
2022-12-21T05:37:49.322Z,1003.93
2022-12-21T05:38:21.048Z,1004.13
2022-12-21T05:38:53.204Z,1004.13
2022-12-21T05:39:25.130Z,1004.33
2022-12-21T05:39:47.814Z,1004.23
2022-12-21T05:40:10.145Z,1004.23
2022-12-21T05:40:45.340Z,1004.23
2022-12-21T05:41:17.460Z,1004.03
2022-12-21T05:41:49.104Z,1004.03
2022-12-21T05:42:22.009Z,1004.13
2022-12-21T05:42:53.627Z,1004.13
2022-12-21T05:43:22.305Z,1004.23
2022-12-21T05:43:54.013Z,1004.03
2022-12-21T05:44:29.339Z,1004.03
2022-12-21T05:44:52.751Z,1004.23
2022-12-21T05:45:15.236Z,1004.23
2022-12-21T05:45:49.309Z,1004.23
2022-12-21T05:46:25.612Z,1004.13
2022-12-21T05:46:53.557Z,1004.13
2022-12-21T05:47:25.302Z,1003.93
2022-12-21T05:47:48.394Z,1004.13
2022-12-21T05:48:10.366Z,1004.13
2022-12-21T05:48:45.440Z,1004.13
2022-12-21T05:49:17.108Z,1004.13
2022-12-21T05:49:49.258Z,1004.13
2022-12-21T05:50:21.256Z,1004.03
2022-12-21T05:50:53.219Z,1004.03
2022-12-21T05:51:22.403Z,1003.93
2022-12-21T05:51:54.063Z,1004.33
2022-12-21T05:52:29.172Z,1004.33
2022-12-21T05:52:51.850Z,1004.23
2022-12-21T05:53:14.500Z,1004.23
2022-12-21T05:53:49.428Z,1004.23
2022-12-21T05:54:21.357Z,1004.03
2022-12-21T05:54:52.997Z,1004.03
2022-12-21T05:55:25.032Z,1004.13
2022-12-21T05:55:50.380Z,1004.23
2022-12-21T05:56:12.647Z,1004.23
2022-12-21T05:56:44.961Z,1004.23
2022-12-21T05:57:17.170Z,1003.93
2022-12-21T05:57:49.211Z,1003.93
2022-12-21T05:58:21.347Z,1003.93
2022-12-21T05:58:53.021Z,1003.93
2022-12-21T05:59:22.504Z,1004.03
2022-12-21T05:59:54.237Z,1004.03
2022-12-21T06:00:29.289Z,1004.03
2022-12-21T06:00:51.863Z,1004.03
2022-12-21T06:01:14.209Z,1004.03
2022-12-21T06:01:49.194Z,1004.03
2022-12-21T06:02:21.630Z,1003.93
2022-12-21T06:02:53.387Z,1003.93
2022-12-21T06:03:19.670Z,1003.72